sensor_id;sensor_type;location;lat;lon;timestamp;P1;durP1;ratioP1;P2;durP2;ratioP2
4895;SDS011;2463;49.948;8.472;2023-06-01T00:00:56;90.33;;;4.90;;
4895;SDS011;2463;49.948;8.472;2023-06-01T00:03:25;90.30;;;5.63;;
4895;SDS011;2463;49.948;8.472;2023-06-01T00:05:53;88.70;;;4.80;;
4895;SDS011;2463;49.948;8.472;2023-06-01T00:08:19;89.27;;;5.00;;
4895;SDS011;2463;49.948;8.472;2023-06-01T00:10:48;88.00;;;5.03;;
4895;SDS011;2463;49.948;8.472;2023-06-01T00:13:15;88.87;;;4.97;;
4895;SDS011;2463;49.948;8.472;2023-06-01T00:15:42;89.90;;;5.33;;
4895;SDS011;2463;49.948;8.472;2023-06-01T00:18:10;92.30;;;5.57;;
4895;SDS011;2463;49.948;8.472;2023-06-01T00:20:39;89.70;;;4.93;;
4895;SDS011;2463;49.948;8.472;2023-06-01T00:23:05;89.40;;;4.90;;
4895;SDS011;2463;49.948;8.472;2023-06-01T00:25:32;90.17;;;5.30;;
4895;SDS011;2463;49.948;8.472;2023-06-01T00:27:59;91.07;;;4.77;;
4895;SDS011;2463;49.948;8.472;2023-06-01T00:30:28;94.20;;;4.80;;
4895;SDS011;2463;49.948;8.472;2023-06-01T00:32:55;89.87;;;5.20;;
4895;SDS011;2463;49.948;8.472;2023-06-01T00:35:22;91.20;;;5.00;;
4895;SDS011;2463;49.948;8.472;2023-06-01T00:37:49;90.30;;;5.10;;
4895;SDS011;2463;49.948;8.472;2023-06-01T00:40:15;89.67;;;5.20;;
4895;SDS011;2463;49.948;8.472;2023-06-01T00:42:42;91.30;;;5.77;;
4895;SDS011;2463;49.948;8.472;2023-06-01T00:45:09;91.60;;;5.50;;
4895;SDS011;2463;49.948;8.472;2023-06-01T00:47:39;91.50;;;5.50;;
4895;SDS011;2463;49.948;8.472;2023-06-01T00:50:09;89.63;;;4.90;;
4895;SDS011;2463;49.948;8.472;2023-06-01T00:52:37;89.50;;;5.80;;
4895;SDS011;2463;49.948;8.472;2023-06-01T00:55:05;91.50;;;6.90;;
4895;SDS011;2463;49.948;8.472;2023-06-01T00:57:34;99.23;;;6.17;;
4895;SDS011;2463;49.948;8.472;2023-06-01T01:00:02;89.57;;;5.20;;
4895;SDS011;2463;49.948;8.472;2023-06-01T01:02:39;93.40;;;5.60;;
4895;SDS011;2463;49.948;8.472;2023-06-01T01:05:10;90.60;;;5.33;;
4895;SDS011;2463;49.948;8.472;2023-06-01T01:12:45;90.80;;;5.80;;
4895;SDS011;2463;49.948;8.472;2023-06-01T01:17:58;90.20;;;5.60;;
4895;SDS011;2463;49.948;8.472;2023-06-01T01:20:31;91.70;;;5.10;;
4895;SDS011;2463;49.948;8.472;2023-06-01T01:26:09;93.47;;;5.53;;
4895;SDS011;2463;49.948;8.472;2023-06-01T01:29:12;90.57;;;5.10;;
4895;SDS011;2463;49.948;8.472;2023-06-01T01:31:41;89.00;;;4.80;;
4895;SDS011;2463;49.948;8.472;2023-06-01T01:34:10;91.70;;;5.00;;
4895;SDS011;2463;49.948;8.472;2023-06-01T01:36:37;93.30;;;6.13;;
4895;SDS011;2463;49.948;8.472;2023-06-01T01:39:04;92.70;;;5.90;;
4895;SDS011;2463;49.948;8.472;2023-06-01T01:41:32;95.60;;;5.60;;
4895;SDS011;2463;49.948;8.472;2023-06-01T01:43:58;92.17;;;5.53;;
4895;SDS011;2463;49.948;8.472;2023-06-01T01:47:11;91.60;;;5.60;;
4895;SDS011;2463;49.948;8.472;2023-06-01T01:49:25;89.67;;;5.00;;
4895;SDS011;2463;49.948;8.472;2023-06-01T01:55:07;90.27;;;5.03;;
4895;SDS011;2463;49.948;8.472;2023-06-01T01:57:35;89.77;;;5.30;;
4895;SDS011;2463;49.948;8.472;2023-06-01T02:00:03;92.60;;;5.37;;
4895;SDS011;2463;49.948;8.472;2023-06-01T02:02:34;89.13;;;5.30;;
4895;SDS011;2463;49.948;8.472;2023-06-01T02:05:01;92.40;;;5.10;;
4895;SDS011;2463;49.948;8.472;2023-06-01T02:07:29;90.57;;;5.27;;
4895;SDS011;2463;49.948;8.472;2023-06-01T02:09:56;90.20;;;5.70;;
4895;SDS011;2463;49.948;8.472;2023-06-01T02:12:23;89.30;;;5.07;;
4895;SDS011;2463;49.948;8.472;2023-06-01T02:14:50;89.60;;;5.20;;
4895;SDS011;2463;49.948;8.472;2023-06-01T02:17:16;93.47;;;5.40;;
4895;SDS011;2463;49.948;8.472;2023-06-01T02:19:43;92.17;;;6.10;;
4895;SDS011;2463;49.948;8.472;2023-06-01T02:22:10;91.60;;;6.20;;
4895;SDS011;2463;49.948;8.472;2023-06-01T02:24:37;92.80;;;6.57;;
4895;SDS011;2463;49.948;8.472;2023-06-01T02:27:04;90.73;;;5.40;;
4895;SDS011;2463;49.948;8.472;2023-06-01T02:29:31;94.20;;;7.17;;
4895;SDS011;2463;49.948;8.472;2023-06-01T02:31:58;93.90;;;7.47;;
4895;SDS011;2463;49.948;8.472;2023-06-01T02:34:25;94.80;;;7.43;;
4895;SDS011;2463;49.948;8.472;2023-06-01T02:36:51;98.00;;;7.20;;
4895;SDS011;2463;49.948;8.472;2023-06-01T02:39:22;96.37;;;7.97;;
4895;SDS011;2463;49.948;8.472;2023-06-01T02:41:49;93.73;;;6.90;;
4895;SDS011;2463;49.948;8.472;2023-06-01T02:44:16;90.00;;;5.60;;
4895;SDS011;2463;49.948;8.472;2023-06-01T02:46:43;90.93;;;5.60;;
4895;SDS011;2463;49.948;8.472;2023-06-01T02:49:10;94.77;;;6.57;;
4895;SDS011;2463;49.948;8.472;2023-06-01T02:51:36;91.97;;;5.80;;
4895;SDS011;2463;49.948;8.472;2023-06-01T02:54:03;89.87;;;5.70;;
4895;SDS011;2463;49.948;8.472;2023-06-01T02:56:30;96.60;;;6.20;;
4895;SDS011;2463;49.948;8.472;2023-06-01T02:58:56;90.47;;;5.47;;
4895;SDS011;2463;49.948;8.472;2023-06-01T03:01:23;91.50;;;5.80;;
4895;SDS011;2463;49.948;8.472;2023-06-01T03:03:50;90.97;;;5.90;;
4895;SDS011;2463;49.948;8.472;2023-06-01T03:06:18;91.50;;;5.17;;
4895;SDS011;2463;49.948;8.472;2023-06-01T03:08:47;93.03;;;5.30;;
4895;SDS011;2463;49.948;8.472;2023-06-01T03:11:14;92.83;;;5.70;;
4895;SDS011;2463;49.948;8.472;2023-06-01T03:13:41;91.90;;;5.60;;
4895;SDS011;2463;49.948;8.472;2023-06-01T03:16:07;91.00;;;5.70;;
4895;SDS011;2463;49.948;8.472;2023-06-01T03:18:34;92.05;;;5.40;;
4895;SDS011;2463;49.948;8.472;2023-06-01T03:21:04;93.00;;;5.40;;
4895;SDS011;2463;49.948;8.472;2023-06-01T03:23:31;92.53;;;6.50;;
4895;SDS011;2463;49.948;8.472;2023-06-01T03:25:58;92.67;;;6.27;;
4895;SDS011;2463;49.948;8.472;2023-06-01T03:28:25;92.80;;;5.20;;
4895;SDS011;2463;49.948;8.472;2023-06-01T03:30:52;94.40;;;6.00;;
4895;SDS011;2463;49.948;8.472;2023-06-01T03:33:18;92.00;;;5.70;;
4895;SDS011;2463;49.948;8.472;2023-06-01T03:35:45;92.47;;;6.00;;
4895;SDS011;2463;49.948;8.472;2023-06-01T03:38:12;95.50;;;6.33;;
4895;SDS011;2463;49.948;8.472;2023-06-01T03:40:39;91.53;;;5.87;;
4895;SDS011;2463;49.948;8.472;2023-06-01T03:43:06;90.43;;;5.63;;
4895;SDS011;2463;49.948;8.472;2023-06-01T03:45:32;94.15;;;5.50;;
4895;SDS011;2463;49.948;8.472;2023-06-01T03:47:59;94.07;;;5.73;;
4895;SDS011;2463;49.948;8.472;2023-06-01T03:50:26;91.23;;;5.60;;
4895;SDS011;2463;49.948;8.472;2023-06-01T03:52:53;93.30;;;6.03;;
4895;SDS011;2463;49.948;8.472;2023-06-01T03:55:19;94.70;;;5.60;;
4895;SDS011;2463;49.948;8.472;2023-06-01T03:57:46;96.20;;;5.57;;
4895;SDS011;2463;49.948;8.472;2023-06-01T04:00:13;89.67;;;4.80;;
4895;SDS011;2463;49.948;8.472;2023-06-01T04:02:46;94.43;;;5.70;;
4895;SDS011;2463;49.948;8.472;2023-06-01T04:05:16;91.93;;;5.03;;
4895;SDS011;2463;49.948;8.472;2023-06-01T04:07:47;90.60;;;5.00;;
4895;SDS011;2463;49.948;8.472;2023-06-01T04:10:15;91.80;;;5.00;;
4895;SDS011;2463;49.948;8.472;2023-06-01T04:12:43;90.93;;;5.80;;
4895;SDS011;2463;49.948;8.472;2023-06-01T04:15:12;89.75;;;5.50;;
4895;SDS011;2463;49.948;8.472;2023-06-01T04:17:41;89.97;;;4.77;;
4895;SDS011;2463;49.948;8.472;2023-06-01T04:20:10;94.80;;;5.10;;
4895;SDS011;2463;49.948;8.472;2023-06-01T04:22:42;95.03;;;5.43;;
4895;SDS011;2463;49.948;8.472;2023-06-01T04:25:10;90.00;;;5.07;;
4895;SDS011;2463;49.948;8.472;2023-06-01T04:27:44;92.97;;;5.30;;
4895;SDS011;2463;49.948;8.472;2023-06-01T04:30:13;91.17;;;5.00;;
4895;SDS011;2463;49.948;8.472;2023-06-01T04:32:42;94.57;;;5.13;;
4895;SDS011;2463;49.948;8.472;2023-06-01T04:35:10;90.20;;;5.23;;
4895;SDS011;2463;49.948;8.472;2023-06-01T04:37:38;91.17;;;5.13;;
4895;SDS011;2463;49.948;8.472;2023-06-01T04:40:06;95.57;;;5.00;;
4895;SDS011;2463;49.948;8.472;2023-06-01T04:42:38;98.27;;;4.80;;
4895;SDS011;2463;49.948;8.472;2023-06-01T04:45:08;92.10;;;5.43;;
4895;SDS011;2463;49.948;8.472;2023-06-01T04:47:36;89.10;;;4.80;;
4895;SDS011;2463;49.948;8.472;2023-06-01T04:50:06;90.53;;;5.03;;
4895;SDS011;2463;49.948;8.472;2023-06-01T04:52:35;88.87;;;4.97;;
4895;SDS011;2463;49.948;8.472;2023-06-01T04:55:03;89.40;;;5.07;;
4895;SDS011;2463;49.948;8.472;2023-06-01T04:57:31;88.13;;;4.63;;
4895;SDS011;2463;49.948;8.472;2023-06-01T04:59:58;92.60;;;4.90;;
4895;SDS011;2463;49.948;8.472;2023-06-01T05:02:25;89.23;;;4.67;;
4895;SDS011;2463;49.948;8.472;2023-06-01T05:04:52;89.70;;;4.97;;
4895;SDS011;2463;49.948;8.472;2023-06-01T05:07:19;92.90;;;4.70;;
4895;SDS011;2463;49.948;8.472;2023-06-01T05:09:47;90.17;;;5.20;;
4895;SDS011;2463;49.948;8.472;2023-06-01T05:12:14;92.07;;;4.80;;
4895;SDS011;2463;49.948;8.472;2023-06-01T05:14:41;91.90;;;5.00;;
4895;SDS011;2463;49.948;8.472;2023-06-01T05:17:07;89.87;;;4.87;;
4895;SDS011;2463;49.948;8.472;2023-06-01T05:19:34;90.73;;;4.80;;
4895;SDS011;2463;49.948;8.472;2023-06-01T05:22:01;88.90;;;5.00;;
4895;SDS011;2463;49.948;8.472;2023-06-01T05:24:28;90.27;;;4.73;;
4895;SDS011;2463;49.948;8.472;2023-06-01T05:26:54;89.07;;;4.83;;
4895;SDS011;2463;49.948;8.472;2023-06-01T05:29:21;90.67;;;5.10;;
4895;SDS011;2463;49.948;8.472;2023-06-01T05:31:49;88.30;;;4.90;;
4895;SDS011;2463;49.948;8.472;2023-06-01T05:34:15;88.77;;;4.77;;
4895;SDS011;2463;49.948;8.472;2023-06-01T05:36:42;90.53;;;5.10;;
4895;SDS011;2463;49.948;8.472;2023-06-01T05:39:09;91.57;;;5.07;;
4895;SDS011;2463;49.948;8.472;2023-06-01T05:41:37;88.80;;;5.70;;
4895;SDS011;2463;49.948;8.472;2023-06-01T05:44:04;88.40;;;4.70;;
4895;SDS011;2463;49.948;8.472;2023-06-01T05:46:30;91.57;;;4.90;;
4895;SDS011;2463;49.948;8.472;2023-06-01T05:48:57;88.63;;;4.60;;
4895;SDS011;2463;49.948;8.472;2023-06-01T05:51:24;91.10;;;5.20;;
4895;SDS011;2463;49.948;8.472;2023-06-01T05:53:50;90.70;;;5.10;;
4895;SDS011;2463;49.948;8.472;2023-06-01T05:56:17;93.93;;;5.13;;
4895;SDS011;2463;49.948;8.472;2023-06-01T05:58:44;89.23;;;4.63;;
4895;SDS011;2463;49.948;8.472;2023-06-01T06:01:16;89.60;;;4.80;;
4895;SDS011;2463;49.948;8.472;2023-06-01T06:03:43;87.43;;;4.70;;
4895;SDS011;2463;49.948;8.472;2023-06-01T06:06:11;96.83;;;5.30;;
4895;SDS011;2463;49.948;8.472;2023-06-01T06:08:38;90.00;;;4.60;;
4895;SDS011;2463;49.948;8.472;2023-06-01T06:11:05;88.60;;;4.50;;
4895;SDS011;2463;49.948;8.472;2023-06-01T06:13:31;89.87;;;5.10;;
4895;SDS011;2463;49.948;8.472;2023-06-01T06:15:58;97.50;;;4.93;;
4895;SDS011;2463;49.948;8.472;2023-06-01T06:18:26;92.70;;;4.67;;
4895;SDS011;2463;49.948;8.472;2023-06-01T06:20:53;87.70;;;4.83;;
4895;SDS011;2463;49.948;8.472;2023-06-01T06:23:19;94.43;;;4.63;;
4895;SDS011;2463;49.948;8.472;2023-06-01T06:25:47;90.47;;;4.43;;
4895;SDS011;2463;49.948;8.472;2023-06-01T06:28:14;86.10;;;4.27;;
4895;SDS011;2463;49.948;8.472;2023-06-01T06:30:42;87.97;;;4.10;;
4895;SDS011;2463;49.948;8.472;2023-06-01T06:33:08;84.60;;;4.17;;
4895;SDS011;2463;49.948;8.472;2023-06-01T06:35:40;82.70;;;3.77;;
4895;SDS011;2463;49.948;8.472;2023-06-01T06:38:07;84.30;;;3.70;;
4895;SDS011;2463;49.948;8.472;2023-06-01T06:40:34;80.70;;;3.50;;
4895;SDS011;2463;49.948;8.472;2023-06-01T06:43:01;80.97;;;3.10;;
4895;SDS011;2463;49.948;8.472;2023-06-01T06:45:27;79.33;;;3.00;;
4895;SDS011;2463;49.948;8.472;2023-06-01T06:47:54;79.40;;;2.87;;
4895;SDS011;2463;49.948;8.472;2023-06-01T06:50:21;79.00;;;2.70;;
4895;SDS011;2463;49.948;8.472;2023-06-01T06:52:48;80.60;;;3.13;;
4895;SDS011;2463;49.948;8.472;2023-06-01T06:55:14;79.67;;;3.10;;
4895;SDS011;2463;49.948;8.472;2023-06-01T06:57:41;78.40;;;3.27;;
4895;SDS011;2463;49.948;8.472;2023-06-01T07:00:08;78.00;;;3.13;;
4895;SDS011;2463;49.948;8.472;2023-06-01T07:02:40;77.10;;;2.73;;
4895;SDS011;2463;49.948;8.472;2023-06-01T07:05:08;77.63;;;2.90;;
4895;SDS011;2463;49.948;8.472;2023-06-01T07:07:37;77.13;;;2.53;;
4895;SDS011;2463;49.948;8.472;2023-06-01T07:10:04;77.40;;;2.77;;
4895;SDS011;2463;49.948;8.472;2023-06-01T07:12:32;84.27;;;3.30;;
4895;SDS011;2463;49.948;8.472;2023-06-01T07:15:01;76.37;;;2.40;;
4895;SDS011;2463;49.948;8.472;2023-06-01T07:17:28;78.60;;;2.70;;
4895;SDS011;2463;49.948;8.472;2023-06-01T07:19:55;81.50;;;2.90;;
4895;SDS011;2463;49.948;8.472;2023-06-01T07:22:22;79.10;;;3.20;;
4895;SDS011;2463;49.948;8.472;2023-06-01T07:24:48;78.37;;;2.93;;
4895;SDS011;2463;49.948;8.472;2023-06-01T07:27:16;79.40;;;3.00;;
4895;SDS011;2463;49.948;8.472;2023-06-01T07:29:44;79.00;;;3.27;;
4895;SDS011;2463;49.948;8.472;2023-06-01T07:32:11;82.33;;;3.23;;
4895;SDS011;2463;49.948;8.472;2023-06-01T07:34:38;78.67;;;3.13;;
4895;SDS011;2463;49.948;8.472;2023-06-01T07:37:04;81.37;;;3.17;;
4895;SDS011;2463;49.948;8.472;2023-06-01T07:39:43;80.90;;;3.30;;
4895;SDS011;2463;49.948;8.472;2023-06-01T07:42:09;81.73;;;3.50;;
4895;SDS011;2463;49.948;8.472;2023-06-01T07:44:36;81.47;;;3.13;;
4895;SDS011;2463;49.948;8.472;2023-06-01T07:47:03;79.90;;;3.33;;
4895;SDS011;2463;49.948;8.472;2023-06-01T07:49:30;82.17;;;3.07;;
4895;SDS011;2463;49.948;8.472;2023-06-01T07:51:57;81.20;;;3.57;;
4895;SDS011;2463;49.948;8.472;2023-06-01T07:54:25;81.70;;;3.20;;
4895;SDS011;2463;49.948;8.472;2023-06-01T07:56:52;81.90;;;4.00;;
4895;SDS011;2463;49.948;8.472;2023-06-01T07:59:20;80.87;;;3.50;;
4895;SDS011;2463;49.948;8.472;2023-06-01T08:01:54;80.50;;;3.37;;
4895;SDS011;2463;49.948;8.472;2023-06-01T08:04:22;80.80;;;3.80;;
4895;SDS011;2463;49.948;8.472;2023-06-01T08:06:50;81.80;;;3.50;;
4895;SDS011;2463;49.948;8.472;2023-06-01T08:09:19;81.60;;;3.73;;
4895;SDS011;2463;49.948;8.472;2023-06-01T08:11:48;82.27;;;3.80;;
4895;SDS011;2463;49.948;8.472;2023-06-01T08:14:15;83.07;;;3.50;;
4895;SDS011;2463;49.948;8.472;2023-06-01T08:16:42;84.70;;;3.50;;
4895;SDS011;2463;49.948;8.472;2023-06-01T08:19:09;85.27;;;3.80;;
4895;SDS011;2463;49.948;8.472;2023-06-01T08:21:36;84.60;;;3.63;;
4895;SDS011;2463;49.948;8.472;2023-06-01T08:24:03;81.47;;;3.53;;
4895;SDS011;2463;49.948;8.472;2023-06-01T08:26:30;80.53;;;3.27;;
4895;SDS011;2463;49.948;8.472;2023-06-01T08:28:56;83.77;;;3.57;;
4895;SDS011;2463;49.948;8.472;2023-06-01T08:31:24;80.93;;;3.57;;
4895;SDS011;2463;49.948;8.472;2023-06-01T08:33:52;83.67;;;4.00;;
4895;SDS011;2463;49.948;8.472;2023-06-01T08:36:19;81.40;;;3.73;;
4895;SDS011;2463;49.948;8.472;2023-06-01T08:38:48;84.47;;;3.77;;
4895;SDS011;2463;49.948;8.472;2023-06-01T08:44:08;85.40;;;4.07;;
4895;SDS011;2463;49.948;8.472;2023-06-01T08:46:36;82.57;;;3.10;;
4895;SDS011;2463;49.948;8.472;2023-06-01T08:49:05;81.60;;;3.53;;
4895;SDS011;2463;49.948;8.472;2023-06-01T08:51:33;81.13;;;3.70;;
4895;SDS011;2463;49.948;8.472;2023-06-01T08:54:04;81.17;;;3.67;;
4895;SDS011;2463;49.948;8.472;2023-06-01T08:56:35;83.57;;;3.73;;
4895;SDS011;2463;49.948;8.472;2023-06-01T08:59:03;82.37;;;3.77;;
4895;SDS011;2463;49.948;8.472;2023-06-01T09:01:30;80.80;;;3.47;;
4895;SDS011;2463;49.948;8.472;2023-06-01T09:03:57;80.77;;;3.70;;
4895;SDS011;2463;49.948;8.472;2023-06-01T09:06:24;84.63;;;3.50;;
4895;SDS011;2463;49.948;8.472;2023-06-01T09:08:50;85.60;;;3.50;;
4895;SDS011;2463;49.948;8.472;2023-06-01T09:11:17;83.20;;;3.97;;
4895;SDS011;2463;49.948;8.472;2023-06-01T09:13:45;82.50;;;3.50;;
4895;SDS011;2463;49.948;8.472;2023-06-01T09:16:12;82.17;;;3.43;;
4895;SDS011;2463;49.948;8.472;2023-06-01T09:18:54;80.17;;;3.70;;
4895;SDS011;2463;49.948;8.472;2023-06-01T09:21:21;80.10;;;3.47;;
4895;SDS011;2463;49.948;8.472;2023-06-01T09:23:48;81.17;;;3.50;;
4895;SDS011;2463;49.948;8.472;2023-06-01T09:26:15;81.07;;;3.23;;
4895;SDS011;2463;49.948;8.472;2023-06-01T09:34:09;85.90;;;3.60;;
4895;SDS011;2463;49.948;8.472;2023-06-01T09:36:38;81.67;;;3.47;;
4895;SDS011;2463;49.948;8.472;2023-06-01T09:39:09;82.90;;;3.60;;
4895;SDS011;2463;49.948;8.472;2023-06-01T09:44:34;80.27;;;3.43;;
4895;SDS011;2463;49.948;8.472;2023-06-01T09:47:03;81.10;;;3.50;;
4895;SDS011;2463;49.948;8.472;2023-06-01T09:49:37;80.37;;;3.27;;
4895;SDS011;2463;49.948;8.472;2023-06-01T09:57:01;82.97;;;4.60;;
4895;SDS011;2463;49.948;8.472;2023-06-01T09:59:38;84.50;;;3.47;;
4895;SDS011;2463;49.948;8.472;2023-06-01T10:02:21;82.50;;;3.87;;
4895;SDS011;2463;49.948;8.472;2023-06-01T10:07:17;82.03;;;3.47;;
4895;SDS011;2463;49.948;8.472;2023-06-01T10:09:50;79.80;;;3.20;;
4895;SDS011;2463;49.948;8.472;2023-06-01T10:12:19;81.17;;;3.70;;
4895;SDS011;2463;49.948;8.472;2023-06-01T10:14:46;79.60;;;3.27;;
4895;SDS011;2463;49.948;8.472;2023-06-01T10:17:14;79.80;;;3.27;;
4895;SDS011;2463;49.948;8.472;2023-06-01T10:19:42;81.73;;;3.00;;
4895;SDS011;2463;49.948;8.472;2023-06-01T10:22:10;79.50;;;3.07;;
4895;SDS011;2463;49.948;8.472;2023-06-01T10:24:38;80.57;;;2.90;;
4895;SDS011;2463;49.948;8.472;2023-06-01T10:29:59;79.30;;;3.20;;
4895;SDS011;2463;49.948;8.472;2023-06-01T10:40:33;83.57;;;3.40;;
4895;SDS011;2463;49.948;8.472;2023-06-01T10:43:00;79.13;;;3.30;;
4895;SDS011;2463;49.948;8.472;2023-06-01T10:48:00;84.83;;;3.23;;
4895;SDS011;2463;49.948;8.472;2023-06-01T10:50:28;77.00;;;2.83;;
4895;SDS011;2463;49.948;8.472;2023-06-01T10:52:55;80.57;;;3.23;;
4895;SDS011;2463;49.948;8.472;2023-06-01T10:55:24;81.83;;;3.00;;
4895;SDS011;2463;49.948;8.472;2023-06-01T10:58:18;83.10;;;3.10;;
4895;SDS011;2463;49.948;8.472;2023-06-01T11:00:52;81.10;;;3.43;;
4895;SDS011;2463;49.948;8.472;2023-06-01T11:09:11;80.17;;;3.20;;
4895;SDS011;2463;49.948;8.472;2023-06-01T11:14:19;77.77;;;3.00;;
4895;SDS011;2463;49.948;8.472;2023-06-01T11:16:51;76.93;;;2.80;;
4895;SDS011;2463;49.948;8.472;2023-06-01T11:19:22;81.27;;;3.13;;
4895;SDS011;2463;49.948;8.472;2023-06-01T11:21:56;78.03;;;2.80;;
4895;SDS011;2463;49.948;8.472;2023-06-01T11:24:34;80.43;;;2.90;;
4895;SDS011;2463;49.948;8.472;2023-06-01T11:27:05;78.30;;;2.93;;
4895;SDS011;2463;49.948;8.472;2023-06-01T11:29:34;79.33;;;2.97;;
4895;SDS011;2463;49.948;8.472;2023-06-01T11:32:01;78.10;;;2.80;;
4895;SDS011;2463;49.948;8.472;2023-06-01T11:34:36;77.80;;;2.87;;
4895;SDS011;2463;49.948;8.472;2023-06-01T11:37:06;78.60;;;2.93;;
4895;SDS011;2463;49.948;8.472;2023-06-01T11:39:38;77.43;;;2.67;;
4895;SDS011;2463;49.948;8.472;2023-06-01T11:42:11;81.50;;;3.03;;
4895;SDS011;2463;49.948;8.472;2023-06-01T11:44:56;80.80;;;3.30;;
4895;SDS011;2463;49.948;8.472;2023-06-01T11:47:28;79.43;;;2.90;;
4895;SDS011;2463;49.948;8.472;2023-06-01T11:49:56;80.17;;;3.23;;
4895;SDS011;2463;49.948;8.472;2023-06-01T11:52:23;76.53;;;2.87;;
4895;SDS011;2463;49.948;8.472;2023-06-01T11:54:50;79.87;;;3.90;;
4895;SDS011;2463;49.948;8.472;2023-06-01T11:57:19;80.20;;;2.97;;
4895;SDS011;2463;49.948;8.472;2023-06-01T11:59:47;78.40;;;3.30;;
4895;SDS011;2463;49.948;8.472;2023-06-01T12:04:53;78.10;;;2.90;;
4895;SDS011;2463;49.948;8.472;2023-06-01T12:07:48;79.07;;;2.83;;
4895;SDS011;2463;49.948;8.472;2023-06-01T12:10:20;77.73;;;2.53;;
4895;SDS011;2463;49.948;8.472;2023-06-01T12:12:47;80.13;;;3.30;;
4895;SDS011;2463;49.948;8.472;2023-06-01T12:15:15;82.90;;;3.27;;
4895;SDS011;2463;49.948;8.472;2023-06-01T12:17:50;77.57;;;2.80;;
4895;SDS011;2463;49.948;8.472;2023-06-01T12:20:40;78.57;;;3.10;;
4895;SDS011;2463;49.948;8.472;2023-06-01T12:25:57;77.63;;;2.80;;
4895;SDS011;2463;49.948;8.472;2023-06-01T12:28:26;79.27;;;2.97;;
4895;SDS011;2463;49.948;8.472;2023-06-01T12:31:11;78.30;;;2.90;;
4895;SDS011;2463;49.948;8.472;2023-06-01T12:33:39;77.60;;;3.00;;
4895;SDS011;2463;49.948;8.472;2023-06-01T12:36:07;81.00;;;2.97;;
4895;SDS011;2463;49.948;8.472;2023-06-01T12:38:35;79.17;;;2.90;;
4895;SDS011;2463;49.948;8.472;2023-06-01T12:41:06;77.40;;;2.83;;
4895;SDS011;2463;49.948;8.472;2023-06-01T12:43:38;77.97;;;2.70;;
4895;SDS011;2463;49.948;8.472;2023-06-01T12:46:19;81.27;;;3.10;;
4895;SDS011;2463;49.948;8.472;2023-06-01T12:48:51;78.10;;;3.03;;
4895;SDS011;2463;49.948;8.472;2023-06-01T12:51:20;79.27;;;3.00;;
4895;SDS011;2463;49.948;8.472;2023-06-01T12:53:47;77.67;;;3.20;;
4895;SDS011;2463;49.948;8.472;2023-06-01T12:56:14;80.90;;;2.77;;
4895;SDS011;2463;49.948;8.472;2023-06-01T12:58:41;78.57;;;2.70;;
4895;SDS011;2463;49.948;8.472;2023-06-01T13:01:08;79.17;;;3.10;;
4895;SDS011;2463;49.948;8.472;2023-06-01T13:03:35;77.90;;;2.80;;
4895;SDS011;2463;49.948;8.472;2023-06-01T13:06:02;77.90;;;2.90;;
4895;SDS011;2463;49.948;8.472;2023-06-01T13:08:29;76.37;;;2.63;;
4895;SDS011;2463;49.948;8.472;2023-06-01T13:10:56;78.60;;;2.83;;
4895;SDS011;2463;49.948;8.472;2023-06-01T13:13:22;79.13;;;2.60;;
4895;SDS011;2463;49.948;8.472;2023-06-01T13:15:49;79.60;;;3.27;;
4895;SDS011;2463;49.948;8.472;2023-06-01T13:18:16;78.20;;;3.13;;
4895;SDS011;2463;49.948;8.472;2023-06-01T13:20:43;77.30;;;2.90;;
4895;SDS011;2463;49.948;8.472;2023-06-01T13:23:10;77.00;;;3.13;;
4895;SDS011;2463;49.948;8.472;2023-06-01T13:25:38;79.30;;;2.93;;
4895;SDS011;2463;49.948;8.472;2023-06-01T13:28:06;79.10;;;2.67;;
4895;SDS011;2463;49.948;8.472;2023-06-01T13:30:34;81.07;;;3.20;;
4895;SDS011;2463;49.948;8.472;2023-06-01T13:33:01;78.87;;;3.10;;
4895;SDS011;2463;49.948;8.472;2023-06-01T13:35:29;78.30;;;2.53;;
4895;SDS011;2463;49.948;8.472;2023-06-01T13:37:56;78.20;;;2.93;;
4895;SDS011;2463;49.948;8.472;2023-06-01T13:40:24;79.80;;;2.73;;
4895;SDS011;2463;49.948;8.472;2023-06-01T13:42:51;79.77;;;3.13;;
4895;SDS011;2463;49.948;8.472;2023-06-01T13:45:19;79.43;;;3.20;;
4895;SDS011;2463;49.948;8.472;2023-06-01T13:47:46;77.90;;;3.13;;
4895;SDS011;2463;49.948;8.472;2023-06-01T13:50:13;80.07;;;2.70;;
4895;SDS011;2463;49.948;8.472;2023-06-01T13:52:40;77.67;;;2.83;;
4895;SDS011;2463;49.948;8.472;2023-06-01T13:55:08;79.60;;;3.17;;
4895;SDS011;2463;49.948;8.472;2023-06-01T13:57:35;80.77;;;2.80;;
4895;SDS011;2463;49.948;8.472;2023-06-01T14:00:05;77.40;;;3.07;;
4895;SDS011;2463;49.948;8.472;2023-06-01T14:02:34;79.10;;;2.83;;
4895;SDS011;2463;49.948;8.472;2023-06-01T14:05:02;79.37;;;3.00;;
4895;SDS011;2463;49.948;8.472;2023-06-01T14:07:34;78.70;;;3.13;;
4895;SDS011;2463;49.948;8.472;2023-06-01T14:10:01;78.43;;;3.10;;
4895;SDS011;2463;49.948;8.472;2023-06-01T14:12:28;78.90;;;2.90;;
4895;SDS011;2463;49.948;8.472;2023-06-01T14:14:56;79.00;;;3.10;;
4895;SDS011;2463;49.948;8.472;2023-06-01T14:17:22;79.27;;;3.00;;
4895;SDS011;2463;49.948;8.472;2023-06-01T14:19:50;78.97;;;2.87;;
4895;SDS011;2463;49.948;8.472;2023-06-01T14:22:18;78.77;;;3.23;;
4895;SDS011;2463;49.948;8.472;2023-06-01T14:24:45;82.00;;;3.57;;
4895;SDS011;2463;49.948;8.472;2023-06-01T14:27:12;80.70;;;3.87;;
4895;SDS011;2463;49.948;8.472;2023-06-01T14:29:39;79.40;;;3.17;;
4895;SDS011;2463;49.948;8.472;2023-06-01T14:32:09;79.40;;;3.00;;
4895;SDS011;2463;49.948;8.472;2023-06-01T14:34:35;81.63;;;3.10;;
4895;SDS011;2463;49.948;8.472;2023-06-01T14:37:02;79.80;;;3.17;;
4895;SDS011;2463;49.948;8.472;2023-06-01T14:39:33;77.73;;;3.00;;
4895;SDS011;2463;49.948;8.472;2023-06-01T14:42:00;79.60;;;3.07;;
4895;SDS011;2463;49.948;8.472;2023-06-01T14:44:27;79.67;;;3.33;;
4895;SDS011;2463;49.948;8.472;2023-06-01T14:46:53;77.70;;;2.93;;
4895;SDS011;2463;49.948;8.472;2023-06-01T14:49:22;78.33;;;3.00;;
4895;SDS011;2463;49.948;8.472;2023-06-01T14:52:00;77.73;;;3.17;;
4895;SDS011;2463;49.948;8.472;2023-06-01T14:54:27;77.67;;;2.80;;
4895;SDS011;2463;49.948;8.472;2023-06-01T14:57:03;79.03;;;3.40;;
4895;SDS011;2463;49.948;8.472;2023-06-01T14:59:31;79.87;;;3.40;;
4895;SDS011;2463;49.948;8.472;2023-06-01T15:01:59;79.20;;;3.57;;
4895;SDS011;2463;49.948;8.472;2023-06-01T15:04:27;79.00;;;3.23;;
4895;SDS011;2463;49.948;8.472;2023-06-01T15:06:55;78.30;;;3.40;;
4895;SDS011;2463;49.948;8.472;2023-06-01T15:09:22;80.47;;;3.30;;
4895;SDS011;2463;49.948;8.472;2023-06-01T15:11:48;80.30;;;3.20;;
4895;SDS011;2463;49.948;8.472;2023-06-01T15:14:15;78.77;;;3.30;;
4895;SDS011;2463;49.948;8.472;2023-06-01T15:16:42;82.93;;;3.40;;
4895;SDS011;2463;49.948;8.472;2023-06-01T15:19:09;83.40;;;3.83;;
4895;SDS011;2463;49.948;8.472;2023-06-01T15:21:36;81.43;;;3.70;;
4895;SDS011;2463;49.948;8.472;2023-06-01T15:24:03;88.73;;;4.20;;
4895;SDS011;2463;49.948;8.472;2023-06-01T15:26:30;80.30;;;3.43;;
4895;SDS011;2463;49.948;8.472;2023-06-01T15:28:57;80.27;;;3.30;;
4895;SDS011;2463;49.948;8.472;2023-06-01T15:31:23;78.87;;;3.33;;
4895;SDS011;2463;49.948;8.472;2023-06-01T15:33:51;81.20;;;3.50;;
4895;SDS011;2463;49.948;8.472;2023-06-01T15:36:17;81.90;;;3.50;;
4895;SDS011;2463;49.948;8.472;2023-06-01T15:38:44;82.13;;;3.63;;
4895;SDS011;2463;49.948;8.472;2023-06-01T15:41:11;80.03;;;3.33;;
4895;SDS011;2463;49.948;8.472;2023-06-01T15:43:41;81.87;;;3.50;;
4895;SDS011;2463;49.948;8.472;2023-06-01T15:46:08;81.77;;;3.53;;
4895;SDS011;2463;49.948;8.472;2023-06-01T15:48:34;83.63;;;3.93;;
4895;SDS011;2463;49.948;8.472;2023-06-01T15:51:05;82.97;;;3.57;;
4895;SDS011;2463;49.948;8.472;2023-06-01T15:53:33;82.43;;;3.33;;
4895;SDS011;2463;49.948;8.472;2023-06-01T15:56:00;83.33;;;4.20;;
4895;SDS011;2463;49.948;8.472;2023-06-01T15:58:27;80.57;;;3.73;;
4895;SDS011;2463;49.948;8.472;2023-06-01T16:00:53;79.60;;;3.83;;
4895;SDS011;2463;49.948;8.472;2023-06-01T16:03:36;80.57;;;3.47;;
4895;SDS011;2463;49.948;8.472;2023-06-01T16:06:03;81.00;;;4.70;;
4895;SDS011;2463;49.948;8.472;2023-06-01T16:08:31;81.57;;;4.67;;